createdAt,value
2018-07-10T00:00:34.425Z,0.00
2018-07-10T00:01:34.443Z,0.00
2018-07-10T00:02:34.454Z,0.00
2018-07-10T00:03:34.484Z,0.00
2018-07-10T00:04:34.499Z,0.00
2018-07-10T00:05:34.517Z,0.00
2018-07-10T00:06:34.544Z,0.00
2018-07-10T00:07:34.561Z,0.00
2018-07-10T00:08:34.579Z,0.00
2018-07-10T00:09:34.596Z,0.00
2018-07-10T00:10:34.615Z,0.00
2018-07-10T00:11:34.645Z,0.00
2018-07-10T00:12:34.666Z,0.00
2018-07-10T00:13:34.688Z,0.00
2018-07-10T00:14:34.712Z,0.00
2018-07-10T00:15:34.743Z,0.00
2018-07-10T00:16:34.738Z,0.00
2018-07-10T00:17:34.769Z,0.00
2018-07-10T00:18:34.776Z,0.00
2018-07-10T00:19:34.829Z,0.00
2018-07-10T00:20:34.819Z,0.00
2018-07-10T00:21:34.835Z,0.00
2018-07-10T00:22:34.856Z,0.00
2018-07-10T00:23:34.883Z,0.00
2018-07-10T00:24:34.904Z,0.00
2018-07-10T00:25:34.930Z,0.00
2018-07-10T00:26:34.940Z,0.00
2018-07-10T00:27:34.971Z,0.00
2018-07-10T00:28:34.986Z,0.00
2018-07-10T00:29:35.005Z,0.00
2018-07-10T00:30:35.020Z,0.00
2018-07-10T00:31:35.063Z,0.00
2018-07-10T00:32:35.068Z,0.00
2018-07-10T00:33:35.080Z,0.00
2018-07-10T00:34:35.108Z,0.00
2018-07-10T00:35:35.143Z,0.00
2018-07-10T00:36:35.139Z,0.00
2018-07-10T00:37:35.169Z,0.00
2018-07-10T00:38:35.194Z,0.00
2018-07-10T00:39:35.214Z,0.00
2018-07-10T00:40:35.224Z,0.00
2018-07-10T00:41:35.250Z,0.00
2018-07-10T00:42:35.277Z,0.00
2018-07-10T00:43:35.291Z,0.00
2018-07-10T00:44:35.306Z,0.00
2018-07-10T00:45:35.340Z,0.00
2018-07-10T00:46:35.357Z,0.00
2018-07-10T00:47:35.364Z,0.00
2018-07-10T00:48:35.395Z,0.00
2018-07-10T00:49:35.426Z,0.00
2018-07-10T00:50:35.426Z,0.00
2018-07-10T00:51:35.450Z,0.00
2018-07-10T00:52:35.466Z,0.00
2018-07-10T00:53:35.484Z,0.00
2018-07-10T00:54:35.509Z,0.00
2018-07-10T00:55:35.526Z,0.00
2018-07-10T00:56:35.545Z,0.00
2018-07-10T00:57:35.579Z,0.00
2018-07-10T00:58:35.593Z,0.00
2018-07-10T00:59:35.625Z,0.00
2018-07-10T01:00:35.624Z,0.00
2018-07-10T01:01:35.661Z,0.00
2018-07-10T01:02:35.663Z,0.00
2018-07-10T01:03:35.689Z,0.00
2018-07-10T01:04:35.709Z,0.00
2018-07-10T01:05:35.735Z,0.00
2018-07-10T01:06:35.745Z,0.00
2018-07-10T01:07:35.773Z,0.00
2018-07-10T01:08:35.786Z,0.00
2018-07-10T01:09:35.821Z,0.00
2018-07-10T01:10:35.834Z,0.00
2018-07-10T01:11:35.873Z,0.00
2018-07-10T01:12:35.871Z,0.00
2018-07-10T01:13:35.888Z,0.00
2018-07-10T01:14:35.911Z,0.00
2018-07-10T01:15:35.949Z,0.00
2018-07-10T01:16:35.947Z,0.00
2018-07-10T01:17:35.967Z,0.00
2018-07-10T01:18:35.993Z,0.00
2018-07-10T01:19:36.043Z,0.00
2018-07-10T01:20:36.033Z,0.00
2018-07-10T01:21:36.046Z,0.00
2018-07-10T01:22:36.075Z,0.00
2018-07-10T01:23:36.112Z,0.00
2018-07-10T01:24:36.104Z,0.00
2018-07-10T01:25:36.128Z,0.00
2018-07-10T01:26:36.145Z,0.00
2018-07-10T01:27:36.167Z,0.00
2018-07-10T01:28:36.185Z,0.00
2018-07-10T01:29:36.237Z,0.00
2018-07-10T01:30:36.232Z,0.00
2018-07-10T01:31:36.250Z,0.00
2018-07-10T01:32:36.276Z,0.00
2018-07-10T01:33:36.327Z,0.00
2018-07-10T01:34:36.310Z,0.00
2018-07-10T01:35:36.331Z,0.00
2018-07-10T01:36:36.351Z,0.00
2018-07-10T01:37:36.368Z,0.00
2018-07-10T01:38:36.398Z,0.00
2018-07-10T01:39:36.412Z,0.00
2018-07-10T01:40:36.436Z,0.00
2018-07-10T01:41:36.457Z,0.00
2018-07-10T01:42:36.471Z,0.00
2018-07-10T01:43:36.503Z,0.00
2018-07-10T01:44:36.507Z,0.00
2018-07-10T01:45:36.547Z,0.00
2018-07-10T01:46:36.553Z,0.00
2018-07-10T01:47:36.595Z,0.00
2018-07-10T01:48:36.596Z,0.00
2018-07-10T01:49:36.616Z,0.00
2018-07-10T01:50:36.663Z,0.00
2018-07-10T01:51:36.649Z,0.00
2018-07-10T01:52:36.669Z,0.00
2018-07-10T01:53:36.693Z,0.00
2018-07-10T01:54:36.714Z,0.00
2018-07-10T01:55:36.731Z,0.00
2018-07-10T01:56:36.856Z,0.00
2018-07-10T01:57:36.776Z,0.00
2018-07-10T01:58:36.800Z,0.00
2018-07-10T01:59:36.813Z,0.00
2018-07-10T02:00:36.850Z,0.00
2018-07-10T02:01:36.859Z,0.00
2018-07-10T02:02:36.877Z,0.00
2018-07-10T02:03:36.898Z,0.00
2018-07-10T02:04:36.915Z,0.00
2018-07-10T02:05:36.937Z,0.00
2018-07-10T02:06:36.953Z,0.00
2018-07-10T02:07:36.975Z,0.00
2018-07-10T02:08:36.994Z,0.00
2018-07-10T02:09:37.017Z,0.00
2018-07-10T02:10:37.033Z,0.00
2018-07-10T02:11:37.054Z,0.00
2018-07-10T02:12:37.077Z,0.00
2018-07-10T02:13:37.094Z,0.00
2018-07-10T02:14:37.114Z,0.00
2018-07-10T02:15:37.140Z,0.00
2018-07-10T02:16:37.155Z,0.00
2018-07-10T02:17:37.174Z,0.00
2018-07-10T02:18:37.197Z,0.00
2018-07-10T02:19:37.214Z,0.00
2018-07-10T02:20:37.249Z,0.00
2018-07-10T02:21:37.274Z,0.00
2018-07-10T02:22:37.279Z,0.00
2018-07-10T02:23:37.298Z,0.00
2018-07-10T02:24:37.328Z,0.00
2018-07-10T02:25:37.357Z,0.00
2018-07-10T02:26:37.369Z,0.00
2018-07-10T02:27:37.374Z,0.00
2018-07-10T02:28:37.409Z,0.00
2018-07-10T02:29:37.416Z,0.00
2018-07-10T02:30:37.445Z,0.00
2018-07-10T02:31:37.461Z,0.00
2018-07-10T02:32:37.477Z,0.00
2018-07-10T02:33:37.507Z,0.00
2018-07-10T02:34:37.520Z,0.00
2018-07-10T02:35:37.549Z,0.00
2018-07-10T02:36:37.589Z,0.00
2018-07-10T02:37:37.590Z,0.00
2018-07-10T02:38:37.603Z,0.00
2018-07-10T02:39:37.611Z,0.00
2018-07-10T02:40:37.637Z,0.00
2018-07-10T02:41:37.657Z,0.00
2018-07-10T02:42:37.684Z,0.00
2018-07-10T02:43:37.697Z,0.00
2018-07-10T02:44:37.714Z,0.00
2018-07-10T02:45:37.736Z,0.00
2018-07-10T02:46:37.762Z,0.00
2018-07-10T02:47:37.790Z,0.00
2018-07-10T02:48:37.792Z,0.00
2018-07-10T02:49:37.815Z,0.00
2018-07-10T02:50:37.841Z,0.00
2018-07-10T02:51:37.881Z,0.00
2018-07-10T02:52:37.873Z,0.00
2018-07-10T02:53:37.896Z,0.00
2018-07-10T02:54:37.912Z,0.00
2018-07-10T02:55:37.937Z,0.00
2018-07-10T02:56:37.956Z,0.00
2018-07-10T02:57:37.985Z,0.00
2018-07-10T02:58:37.997Z,0.00
2018-07-10T02:59:38.019Z,0.00
2018-07-10T03:00:38.039Z,0.00
2018-07-10T03:01:38.061Z,0.00
2018-07-10T03:02:38.078Z,0.00
2018-07-10T03:03:38.098Z,0.00
2018-07-10T03:04:38.118Z,0.00
2018-07-10T03:05:38.139Z,0.00
2018-07-10T03:06:38.153Z,0.00
2018-07-10T03:07:38.187Z,0.00
2018-07-10T03:08:38.204Z,0.00
2018-07-10T03:09:38.214Z,0.00
2018-07-10T03:10:38.229Z,0.00
2018-07-10T03:11:38.254Z,0.00
2018-07-10T03:12:38.271Z,0.00
2018-07-10T03:13:38.309Z,0.00
2018-07-10T03:14:38.375Z,0.00
2018-07-10T03:15:38.328Z,0.00
2018-07-10T03:16:38.348Z,0.00
2018-07-10T03:17:38.407Z,0.00
2018-07-10T03:18:38.390Z,5.63
2018-07-10T03:19:38.408Z,5.63
2018-07-10T03:20:38.425Z,5.63
2018-07-10T03:21:38.449Z,5.63
2018-07-10T03:22:38.469Z,5.63
2018-07-10T03:23:38.492Z,5.63
2018-07-10T03:24:38.515Z,5.63
2018-07-10T03:25:38.532Z,5.63
2018-07-10T03:26:38.563Z,5.63
2018-07-10T03:27:38.577Z,11.25
2018-07-10T03:28:38.582Z,11.25
2018-07-10T03:29:38.612Z,11.25
2018-07-10T03:30:38.627Z,11.25
2018-07-10T03:31:38.649Z,11.25
2018-07-10T03:32:38.667Z,11.25
2018-07-10T03:33:38.687Z,11.25
2018-07-10T03:34:38.720Z,16.88
2018-07-10T03:35:38.724Z,16.88
2018-07-10T03:36:38.758Z,16.88
2018-07-10T03:37:38.770Z,16.88
2018-07-10T03:38:38.802Z,16.88
2018-07-10T03:39:38.802Z,22.50
2018-07-10T03:40:38.832Z,22.50
2018-07-10T03:41:38.850Z,22.50
2018-07-10T03:42:38.867Z,22.50
2018-07-10T03:43:38.889Z,22.50
2018-07-10T03:44:38.916Z,22.50
2018-07-10T03:45:38.922Z,28.13
2018-07-10T03:46:38.940Z,28.13
2018-07-10T03:47:38.958Z,28.13
2018-07-10T03:48:38.989Z,28.13
2018-07-10T03:49:39.009Z,28.13
2018-07-10T03:50:39.030Z,28.13
2018-07-10T03:51:39.053Z,33.75
2018-07-10T03:52:39.061Z,33.75
2018-07-10T03:53:39.079Z,33.75
2018-07-10T03:54:39.106Z,33.75
2018-07-10T03:55:39.120Z,33.75
2018-07-10T03:56:39.143Z,33.75
2018-07-10T03:57:39.155Z,33.75
2018-07-10T03:58:39.178Z,39.38
2018-07-10T03:59:39.203Z,39.38
2018-07-10T04:00:39.216Z,33.75
2018-07-10T04:01:39.254Z,33.75
2018-07-10T04:02:39.271Z,33.75
2018-07-10T04:03:39.279Z,39.38
2018-07-10T04:04:39.343Z,39.38
2018-07-10T04:05:39.318Z,45.00
2018-07-10T04:06:39.358Z,45.00
2018-07-10T04:07:39.358Z,50.63
2018-07-10T04:08:39.415Z,56.25
2018-07-10T04:09:39.397Z,61.88
2018-07-10T04:10:39.425Z,67.50
2018-07-10T04:11:39.455Z,73.13
2018-07-10T04:12:39.454Z,84.38
2018-07-10T04:13:39.474Z,95.63
2018-07-10T04:14:39.500Z,106.88
2018-07-10T04:15:39.514Z,123.75
2018-07-10T04:16:39.529Z,146.25
2018-07-10T04:17:39.585Z,168.75
2018-07-10T04:18:39.577Z,174.38
2018-07-10T04:19:39.593Z,185.63
2018-07-10T04:20:39.614Z,196.88
2018-07-10T04:21:39.630Z,202.50
2018-07-10T04:22:39.671Z,202.50
2018-07-10T04:23:39.694Z,208.13
2018-07-10T04:24:39.692Z,213.75
2018-07-10T04:25:39.714Z,219.38
2018-07-10T04:26:39.736Z,225.00
2018-07-10T04:27:39.756Z,230.63
2018-07-10T04:28:39.780Z,230.63
2018-07-10T04:29:39.791Z,225.00
2018-07-10T04:30:39.815Z,219.38
2018-07-10T04:31:39.832Z,225.00
2018-07-10T04:32:39.847Z,230.63
2018-07-10T04:33:39.881Z,236.25
2018-07-10T04:34:39.906Z,225.00
2018-07-10T04:35:39.923Z,213.75
2018-07-10T04:36:39.942Z,196.88
2018-07-10T04:37:39.947Z,191.25
2018-07-10T04:38:39.979Z,196.88
2018-07-10T04:39:39.995Z,219.38
2018-07-10T04:40:40.017Z,236.25
2018-07-10T04:41:40.032Z,241.88
2018-07-10T04:42:40.058Z,253.13
2018-07-10T04:43:40.078Z,258.75
2018-07-10T04:44:40.104Z,225.00
2018-07-10T04:45:40.118Z,208.13
2018-07-10T04:46:40.133Z,196.88
2018-07-10T04:47:40.145Z,174.38
2018-07-10T04:48:40.178Z,168.75
2018-07-10T04:49:40.188Z,174.38
2018-07-10T04:50:40.210Z,191.25
2018-07-10T04:51:40.238Z,230.63
2018-07-10T04:52:40.253Z,270.00
2018-07-10T04:53:40.271Z,315.00
2018-07-10T04:54:40.291Z,326.25
2018-07-10T04:55:40.306Z,315.00
2018-07-10T04:56:40.332Z,298.13
2018-07-10T04:57:40.348Z,326.25
2018-07-10T04:58:40.376Z,416.25
2018-07-10T04:59:40.386Z,1681.88
2018-07-10T05:00:40.412Z,1743.75
2018-07-10T05:01:40.425Z,1861.88
2018-07-10T05:02:40.449Z,1732.50
2018-07-10T05:03:40.472Z,1580.63
2018-07-10T05:04:40.485Z,1845.00
2018-07-10T05:05:40.542Z,1524.38
2018-07-10T05:06:40.534Z,590.63
2018-07-10T05:07:40.564Z,506.25
2018-07-10T05:08:40.579Z,371.25
2018-07-10T05:09:40.614Z,371.25
2018-07-10T05:10:40.636Z,360.00
2018-07-10T05:11:40.644Z,320.63
2018-07-10T05:12:40.670Z,309.38
2018-07-10T05:13:40.689Z,281.25
2018-07-10T05:14:40.729Z,298.13
2018-07-10T05:15:40.735Z,337.50
2018-07-10T05:16:40.757Z,393.75
2018-07-10T05:17:40.814Z,523.13
2018-07-10T05:18:40.806Z,753.75
2018-07-10T05:19:40.826Z,759.38
2018-07-10T05:20:40.844Z,720.00
2018-07-10T05:21:40.884Z,528.75
2018-07-10T05:22:40.891Z,416.25
2018-07-10T05:23:40.912Z,298.13
2018-07-10T05:24:40.958Z,253.13
2018-07-10T05:25:40.956Z,225.00
2018-07-10T05:26:40.973Z,202.50
2018-07-10T05:27:40.997Z,191.25
2018-07-10T05:28:41.097Z,180.00
2018-07-10T05:29:41.044Z,174.38
2018-07-10T05:30:41.069Z,168.75
2018-07-10T05:31:41.087Z,163.13
2018-07-10T05:32:41.108Z,157.50
2018-07-10T05:33:41.124Z,157.50
2018-07-10T05:34:41.147Z,151.88
2018-07-10T05:35:41.170Z,140.63
2018-07-10T05:36:41.196Z,123.75
2018-07-10T05:37:41.229Z,123.75
2018-07-10T05:38:41.236Z,140.63
2018-07-10T05:39:41.257Z,151.88
2018-07-10T05:40:41.270Z,157.50
2018-07-10T05:41:41.296Z,157.50
2018-07-10T05:42:41.323Z,163.13
2018-07-10T05:43:41.355Z,168.75
2018-07-10T05:44:41.360Z,185.63
2018-07-10T05:45:41.390Z,196.88
2018-07-10T05:46:41.394Z,208.13
2018-07-10T05:47:41.427Z,191.25
2018-07-10T05:48:41.462Z,174.38
2018-07-10T05:49:41.458Z,174.38
2018-07-10T05:50:41.481Z,168.75
2018-07-10T05:51:41.515Z,174.38
2018-07-10T05:52:41.525Z,180.00
2018-07-10T05:53:41.552Z,174.38
2018-07-10T05:54:41.584Z,202.50
2018-07-10T05:55:41.585Z,219.38
2018-07-10T05:56:41.609Z,219.38
2018-07-10T05:57:41.634Z,236.25
2018-07-10T05:58:41.654Z,241.88
2018-07-10T05:59:41.668Z,253.13
2018-07-10T06:00:41.694Z,275.63
2018-07-10T06:01:41.709Z,286.88
2018-07-10T06:02:41.727Z,303.75
2018-07-10T06:03:41.750Z,309.38
2018-07-10T06:04:41.815Z,315.00
2018-07-10T06:05:41.803Z,315.00
2018-07-10T06:06:41.807Z,309.38
2018-07-10T06:07:41.841Z,303.75
2018-07-10T06:08:41.860Z,315.00
2018-07-10T06:09:41.880Z,337.50
2018-07-10T06:10:41.892Z,360.00
2018-07-10T06:11:41.915Z,371.25
2018-07-10T06:12:41.936Z,376.88
2018-07-10T06:13:41.956Z,388.13
2018-07-10T06:14:41.973Z,382.50
2018-07-10T06:15:42.000Z,348.75
2018-07-10T06:16:42.016Z,309.38
2018-07-10T06:17:42.053Z,286.88
2018-07-10T06:18:42.083Z,270.00
2018-07-10T06:19:42.081Z,253.13
2018-07-10T06:20:42.100Z,241.88
2018-07-10T06:21:42.132Z,225.00
2018-07-10T06:22:42.140Z,219.38
2018-07-10T06:23:42.185Z,208.13
2018-07-10T06:24:42.186Z,202.50
2018-07-10T06:25:42.201Z,202.50
2018-07-10T06:26:42.222Z,208.13
2018-07-10T06:27:42.248Z,213.75
2018-07-10T06:28:42.274Z,213.75
2018-07-10T06:29:42.282Z,213.75
2018-07-10T06:30:42.317Z,208.13
2018-07-10T06:31:42.329Z,202.50
2018-07-10T06:32:42.357Z,202.50
2018-07-10T06:33:42.365Z,202.50
2018-07-10T06:34:42.397Z,202.50
2018-07-10T06:35:42.409Z,208.13
2018-07-10T06:36:42.435Z,213.75
2018-07-10T06:37:42.455Z,219.38
2018-07-10T06:38:42.473Z,230.63
2018-07-10T06:39:42.538Z,236.25
2018-07-10T06:40:42.521Z,241.88
2018-07-10T06:41:42.538Z,241.88
2018-07-10T06:42:42.564Z,241.88
2018-07-10T06:43:42.601Z,247.50
2018-07-10T06:44:42.606Z,247.50
2018-07-10T06:45:42.622Z,241.88
2018-07-10T06:46:42.645Z,236.25
2018-07-10T06:47:42.657Z,225.00
2018-07-10T06:48:42.751Z,225.00
2018-07-10T06:49:42.697Z,225.00
2018-07-10T06:50:42.731Z,225.00
2018-07-10T06:51:42.748Z,230.63
2018-07-10T06:52:42.903Z,247.50
2018-07-10T06:53:42.868Z,247.50
2018-07-10T06:54:42.801Z,253.13
2018-07-10T06:55:42.830Z,258.75
2018-07-10T06:56:42.841Z,270.00
2018-07-10T06:57:42.860Z,281.25
2018-07-10T06:58:42.898Z,292.50
2018-07-10T06:59:42.910Z,309.38
2018-07-10T07:00:42.956Z,326.25
2018-07-10T07:01:42.948Z,326.25
2018-07-10T07:02:42.971Z,326.25
2018-07-10T07:03:42.980Z,326.25
2018-07-10T07:04:43.005Z,320.63
2018-07-10T07:05:43.043Z,303.75
2018-07-10T07:06:43.052Z,275.63
2018-07-10T07:07:43.114Z,258.75
2018-07-10T07:08:43.084Z,241.88
2018-07-10T07:09:43.121Z,230.63
2018-07-10T07:10:43.138Z,225.00
2018-07-10T07:11:43.157Z,236.25
2018-07-10T07:12:43.180Z,236.25
2018-07-10T07:13:43.190Z,236.25
2018-07-10T07:14:43.217Z,253.13
2018-07-10T07:15:43.252Z,258.75
2018-07-10T07:16:43.250Z,247.50
2018-07-10T07:17:43.277Z,236.25
2018-07-10T07:18:43.305Z,230.63
2018-07-10T07:19:43.323Z,219.38
2018-07-10T07:20:43.337Z,196.88
2018-07-10T07:21:43.361Z,196.88
2018-07-10T07:22:43.374Z,202.50
2018-07-10T07:23:43.420Z,208.13
2018-07-10T07:24:43.423Z,213.75
2018-07-10T07:25:43.439Z,196.88
2018-07-10T07:26:43.464Z,185.63
2018-07-10T07:27:43.482Z,185.63
2018-07-10T07:28:43.502Z,185.63
2018-07-10T07:29:43.520Z,191.25
2018-07-10T07:30:43.548Z,191.25
2018-07-10T07:31:43.567Z,174.38
2018-07-10T07:32:43.586Z,174.38
2018-07-10T07:33:43.625Z,174.38
2018-07-10T07:34:43.632Z,168.75
2018-07-10T07:35:43.649Z,174.38
2018-07-10T07:36:43.672Z,174.38
2018-07-10T07:37:43.685Z,168.75
2018-07-10T07:38:43.705Z,168.75
2018-07-10T07:39:43.737Z,168.75
2018-07-10T07:40:43.748Z,168.75
2018-07-10T07:41:43.766Z,174.38
2018-07-10T07:42:43.792Z,180.00
2018-07-10T07:43:43.887Z,174.38
2018-07-10T07:44:43.839Z,174.38
2018-07-10T07:45:43.851Z,174.38
2018-07-10T07:46:43.873Z,191.25
2018-07-10T07:47:43.903Z,219.38
2018-07-10T07:48:43.911Z,230.63
2018-07-10T07:49:43.931Z,247.50
2018-07-10T07:50:43.976Z,270.00
2018-07-10T07:51:43.970Z,270.00
2018-07-10T07:52:44.008Z,258.75
2018-07-10T07:53:44.013Z,292.50
2018-07-10T07:54:44.038Z,337.50
2018-07-10T07:55:44.055Z,348.75
2018-07-10T07:56:44.097Z,354.38
2018-07-10T07:57:44.108Z,360.00
2018-07-10T07:58:44.130Z,371.25
2018-07-10T07:59:44.132Z,388.13
2018-07-10T08:00:44.169Z,438.75
2018-07-10T08:01:44.182Z,489.38
2018-07-10T08:02:44.199Z,517.50
2018-07-10T08:03:44.219Z,545.63
2018-07-10T08:04:44.240Z,495.00
2018-07-10T08:05:44.257Z,444.38
2018-07-10T08:06:44.281Z,410.63
2018-07-10T08:07:44.302Z,433.13
2018-07-10T08:08:44.329Z,421.88
2018-07-10T08:09:44.364Z,354.38
2018-07-10T08:10:44.367Z,298.13
2018-07-10T08:11:44.386Z,258.75
2018-07-10T08:12:44.413Z,230.63
2018-07-10T08:13:44.457Z,208.13
2018-07-10T08:14:44.447Z,202.50
2018-07-10T08:15:44.475Z,196.88
2018-07-10T08:16:44.503Z,180.00
2018-07-10T08:17:44.509Z,180.00
2018-07-10T08:18:44.540Z,185.63
2018-07-10T08:19:44.556Z,191.25
2018-07-10T08:20:44.580Z,191.25
2018-07-10T08:21:44.604Z,196.88
2018-07-10T08:22:44.616Z,213.75
2018-07-10T08:23:44.642Z,219.38
2018-07-10T08:24:44.657Z,213.75
2018-07-10T08:25:44.689Z,185.63
2018-07-10T08:26:44.697Z,180.00
2018-07-10T08:27:44.719Z,213.75
2018-07-10T08:28:44.738Z,236.25
2018-07-10T08:29:44.773Z,225.00
2018-07-10T08:30:44.782Z,213.75
2018-07-10T08:31:44.810Z,225.00
2018-07-10T08:32:44.823Z,230.63
2018-07-10T08:33:44.942Z,236.25
2018-07-10T08:34:44.868Z,236.25
2018-07-10T08:35:44.892Z,230.63
2018-07-10T08:36:44.908Z,225.00
2018-07-10T08:37:44.929Z,213.75
2018-07-10T08:38:44.956Z,213.75
2018-07-10T08:39:44.974Z,258.75
2018-07-10T08:40:44.989Z,315.00
2018-07-10T08:41:45.013Z,371.25
2018-07-10T08:42:45.030Z,331.88
2018-07-10T08:43:45.050Z,315.00
2018-07-10T08:44:45.112Z,320.63
2018-07-10T08:45:45.094Z,360.00
2018-07-10T08:46:45.122Z,416.25
2018-07-10T08:47:45.142Z,433.13
2018-07-10T08:48:45.155Z,433.13
2018-07-10T08:49:45.186Z,444.38
2018-07-10T08:50:45.214Z,450.00
2018-07-10T08:51:45.215Z,466.88
2018-07-10T08:52:45.244Z,444.38
2018-07-10T08:53:45.262Z,450.00
2018-07-10T08:54:45.285Z,438.75
2018-07-10T08:55:45.303Z,461.25
2018-07-10T08:56:45.327Z,433.13
2018-07-10T08:57:45.346Z,393.75
2018-07-10T08:58:45.365Z,382.50
2018-07-10T08:59:45.396Z,360.00
2018-07-10T09:00:45.405Z,376.88
2018-07-10T09:01:45.425Z,410.63
2018-07-10T09:02:45.453Z,433.13
2018-07-10T09:03:45.474Z,466.88
2018-07-10T09:04:45.507Z,489.38
2018-07-10T09:05:45.518Z,489.38
2018-07-10T09:06:45.548Z,545.63
2018-07-10T09:07:45.567Z,590.63
2018-07-10T09:08:45.583Z,646.88
2018-07-10T09:09:45.605Z,675.00
2018-07-10T09:10:45.621Z,596.25
2018-07-10T09:11:45.646Z,528.75
2018-07-10T09:12:45.665Z,433.13
2018-07-10T09:13:45.690Z,354.38
2018-07-10T09:14:45.717Z,303.75
2018-07-10T09:15:45.731Z,303.75
2018-07-10T09:16:45.763Z,303.75
2018-07-10T09:17:45.782Z,309.38
2018-07-10T09:18:45.807Z,247.50
2018-07-10T09:19:45.815Z,236.25
2018-07-10T09:20:45.848Z,253.13
2018-07-10T09:21:45.863Z,281.25
2018-07-10T09:22:45.881Z,286.88
2018-07-10T09:23:45.905Z,247.50
2018-07-10T09:24:45.933Z,281.25
2018-07-10T09:25:45.941Z,326.25
2018-07-10T09:26:45.970Z,376.88
2018-07-10T09:27:45.991Z,399.38
2018-07-10T09:28:46.007Z,410.63
2018-07-10T09:29:46.030Z,427.50
2018-07-10T09:30:46.067Z,450.00
2018-07-10T09:31:46.070Z,489.38
2018-07-10T09:32:46.104Z,517.50
2018-07-10T09:33:46.154Z,585.00
2018-07-10T09:34:46.155Z,658.13
2018-07-10T09:35:46.168Z,708.75
2018-07-10T09:36:46.179Z,731.25
2018-07-10T09:37:46.199Z,697.50
2018-07-10T09:38:46.223Z,697.50
2018-07-10T09:39:46.256Z,669.38
2018-07-10T09:40:46.264Z,618.75
2018-07-10T09:41:46.305Z,511.88
2018-07-10T09:42:46.331Z,472.50
2018-07-10T09:43:46.341Z,461.25
2018-07-10T09:44:46.357Z,495.00
2018-07-10T09:45:46.382Z,517.50
2018-07-10T09:46:46.400Z,545.63
2018-07-10T09:47:46.417Z,601.88
2018-07-10T09:48:46.444Z,652.50
2018-07-10T09:49:46.469Z,703.13
2018-07-10T09:50:46.510Z,765.00
2018-07-10T09:51:46.516Z,798.75
2018-07-10T09:52:46.531Z,810.00
2018-07-10T09:53:46.550Z,860.63
2018-07-10T09:54:46.634Z,843.75
2018-07-10T09:55:46.601Z,776.25
2018-07-10T09:56:46.615Z,742.50
2018-07-10T09:57:46.631Z,596.25
2018-07-10T09:58:46.660Z,500.63
2018-07-10T09:59:46.685Z,433.13
2018-07-10T10:00:46.716Z,450.00
2018-07-10T10:01:46.735Z,410.63
2018-07-10T10:02:46.754Z,410.63
2018-07-10T10:03:46.769Z,376.88
2018-07-10T10:04:46.800Z,354.38
2018-07-10T10:05:46.815Z,360.00
2018-07-10T10:06:46.833Z,410.63
2018-07-10T10:07:46.858Z,416.25
2018-07-10T10:08:46.896Z,393.75
2018-07-10T10:09:46.909Z,360.00
2018-07-10T10:10:46.939Z,343.13
2018-07-10T10:11:46.967Z,315.00
2018-07-10T10:12:46.981Z,298.13
2018-07-10T10:13:47.006Z,315.00
2018-07-10T10:14:47.010Z,326.25
2018-07-10T10:15:47.045Z,326.25
2018-07-10T10:16:47.060Z,320.63
2018-07-10T10:17:47.083Z,309.38
2018-07-10T10:18:47.107Z,309.38
2018-07-10T10:19:47.134Z,298.13
2018-07-10T10:20:47.142Z,303.75
2018-07-10T10:21:47.168Z,303.75
2018-07-10T10:22:47.186Z,331.88
2018-07-10T10:23:47.207Z,354.38
2018-07-10T10:24:47.249Z,354.38
2018-07-10T10:25:47.258Z,365.63
2018-07-10T10:26:47.274Z,354.38
2018-07-10T10:27:47.305Z,298.13
2018-07-10T10:28:47.316Z,286.88
2018-07-10T10:29:47.337Z,281.25
2018-07-10T10:30:47.360Z,281.25
2018-07-10T10:31:47.381Z,281.25
2018-07-10T10:32:47.417Z,241.88
2018-07-10T10:33:47.428Z,236.25
2018-07-10T10:34:47.446Z,241.88
2018-07-10T10:35:47.534Z,264.38
2018-07-10T10:36:47.498Z,281.25
2018-07-10T10:37:47.524Z,309.38
2018-07-10T10:38:47.532Z,292.50
2018-07-10T10:39:47.554Z,286.88
2018-07-10T10:40:47.582Z,309.38
2018-07-10T10:41:47.600Z,309.38
2018-07-10T10:42:47.624Z,292.50
2018-07-10T10:43:47.641Z,281.25
2018-07-10T10:44:47.663Z,275.63
2018-07-10T10:45:47.685Z,275.63
2018-07-10T10:46:47.703Z,247.50
2018-07-10T10:47:47.737Z,247.50
2018-07-10T10:48:47.748Z,253.13
2018-07-10T10:49:47.772Z,258.75
2018-07-10T10:50:47.805Z,275.63
2018-07-10T10:51:47.806Z,264.38
2018-07-10T10:52:47.840Z,247.50
2018-07-10T10:53:47.855Z,253.13
2018-07-10T10:54:47.902Z,258.75
2018-07-10T10:55:47.900Z,270.00
2018-07-10T10:56:47.933Z,275.63
2018-07-10T10:57:47.942Z,241.88
2018-07-10T10:58:47.960Z,219.38
2018-07-10T10:59:47.990Z,219.38
2018-07-10T11:00:48.004Z,208.13
2018-07-10T11:01:48.035Z,219.38
2018-07-10T11:02:48.044Z,213.75
2018-07-10T11:03:48.080Z,219.38
2018-07-10T11:04:48.104Z,230.63
2018-07-10T11:05:48.107Z,247.50
2018-07-10T11:06:48.153Z,247.50
2018-07-10T11:07:48.160Z,247.50
2018-07-10T11:08:48.172Z,219.38
2018-07-10T11:09:48.198Z,241.88
2018-07-10T11:10:48.215Z,253.13
2018-07-10T11:11:48.236Z,253.13
2018-07-10T11:12:48.254Z,253.13
2018-07-10T11:13:48.278Z,258.75
2018-07-10T11:14:48.314Z,264.38
2018-07-10T11:15:48.326Z,303.75
2018-07-10T11:16:48.357Z,326.25
2018-07-10T11:17:48.364Z,337.50
2018-07-10T11:18:48.384Z,382.50
2018-07-10T11:19:48.409Z,382.50
2018-07-10T11:20:48.425Z,416.25
2018-07-10T11:21:48.444Z,433.13
2018-07-10T11:22:48.466Z,393.75
2018-07-10T11:23:48.488Z,478.13
2018-07-10T11:24:48.514Z,489.38
2018-07-10T11:25:48.539Z,556.88
2018-07-10T11:26:48.555Z,635.63
2018-07-10T11:27:48.576Z,635.63
2018-07-10T11:28:48.604Z,607.50
2018-07-10T11:29:48.613Z,601.88
2018-07-10T11:30:48.635Z,573.75
2018-07-10T11:31:48.662Z,540.00
2018-07-10T11:32:48.685Z,573.75
2018-07-10T11:33:48.702Z,585.00
2018-07-10T11:34:48.735Z,568.13
2018-07-10T11:35:48.746Z,551.25
2018-07-10T11:36:48.767Z,652.50
2018-07-10T11:37:48.806Z,708.75
2018-07-10T11:38:48.828Z,568.13
2018-07-10T11:39:48.837Z,545.63
2018-07-10T11:40:48.875Z,613.13
2018-07-10T11:41:48.881Z,641.25
2018-07-10T11:42:48.897Z,534.38
2018-07-10T11:43:48.916Z,540.00
2018-07-10T11:44:48.937Z,528.75
2018-07-10T11:45:49.000Z,528.75
2018-07-10T11:46:48.987Z,472.50
2018-07-10T11:47:49.010Z,517.50
2018-07-10T11:48:49.032Z,511.88
2018-07-10T11:49:49.058Z,483.75
2018-07-10T11:50:49.101Z,556.88
2018-07-10T11:51:49.166Z,585.00
2018-07-10T11:52:49.122Z,646.88
2018-07-10T11:53:49.143Z,736.88
2018-07-10T11:54:49.163Z,776.25
2018-07-10T11:55:49.186Z,686.25
2018-07-10T11:56:49.212Z,686.25
2018-07-10T11:57:49.241Z,686.25
2018-07-10T11:58:49.253Z,697.50
2018-07-10T11:59:49.274Z,703.13
2018-07-10T12:00:49.299Z,725.63
2018-07-10T12:01:49.340Z,748.13
2018-07-10T12:02:49.342Z,765.00
2018-07-10T12:03:49.371Z,759.38
2018-07-10T12:04:49.431Z,748.13
2018-07-10T12:05:49.415Z,787.50
2018-07-10T12:06:49.433Z,770.63
2018-07-10T12:07:49.460Z,759.38
2018-07-10T12:08:49.475Z,720.00
2018-07-10T12:09:49.503Z,680.63
2018-07-10T12:10:49.520Z,680.63
2018-07-10T12:11:49.553Z,697.50
2018-07-10T12:12:49.564Z,736.88
2018-07-10T12:13:49.589Z,776.25
2018-07-10T12:14:49.619Z,776.25
2018-07-10T12:15:49.632Z,776.25
2018-07-10T12:16:49.659Z,798.75
2018-07-10T12:17:49.677Z,815.63
2018-07-10T12:18:49.698Z,765.00
2018-07-10T12:19:49.728Z,759.38
2018-07-10T12:20:49.804Z,725.63
2018-07-10T12:21:49.768Z,691.88
2018-07-10T12:22:49.798Z,646.88
2018-07-10T12:23:49.817Z,573.75
2018-07-10T12:24:49.841Z,579.38
2018-07-10T12:25:49.862Z,523.13
2018-07-10T12:26:49.893Z,450.00
2018-07-10T12:27:49.924Z,466.88
2018-07-10T12:28:49.932Z,483.75
2018-07-10T12:29:49.958Z,528.75
2018-07-10T12:30:49.987Z,596.25
2018-07-10T12:31:50.002Z,635.63
2018-07-10T12:32:50.028Z,691.88
2018-07-10T12:33:50.052Z,680.63
2018-07-10T12:34:50.080Z,680.63
2018-07-10T12:35:50.092Z,708.75
2018-07-10T12:36:50.110Z,669.38
2018-07-10T12:37:50.137Z,568.13
2018-07-10T12:38:50.164Z,517.50
2018-07-10T12:39:50.188Z,427.50
2018-07-10T12:40:50.204Z,382.50
2018-07-10T12:41:50.233Z,410.63
2018-07-10T12:42:50.257Z,388.13